Terminal Aerodrome Forecast
Issued by NWS

Home | Current Version | Previous Version | Text Only | Print | Product List | Glossary On
Versions: 1 2 3 4 5 6 7 8 9 10 11 12 13 14 15 16 17 18 19 20 21 22 23 24 25 26
000
FTAK31 PANC 290202 AAB
TAFATK
TAF AMD
PATK 290202Z 2902/2924 06005KT 6SM -RA BR SCT025 OVC040
      TEMPO 2902/2906 3SM RA BKN025
     FM290900 34006KT P6SM SCT030 BKN060=

USA.gov is the U.S. government's official web portal to all federal, state and local government web resources and services.